createdAt,value
2016-10-23T00:00:00.917Z,1008.39
2016-10-23T00:01:00.926Z,1008.41
2016-10-23T00:02:00.983Z,1008.38
2016-10-23T00:03:00.989Z,1008.41
2016-10-23T00:04:00.946Z,1008.43
2016-10-23T00:05:01.003Z,1008.38
2016-10-23T00:06:00.960Z,1008.4
2016-10-23T00:07:00.969Z,1008.37
2016-10-23T00:08:00.975Z,1008.35
2016-10-23T00:09:00.982Z,1008.34
2016-10-23T00:10:00.987Z,1008.36
2016-10-23T00:11:01.344Z,1008.36
2016-10-23T00:12:01.001Z,1008.32
2016-10-23T00:13:01.010Z,1008.29
2016-10-23T00:14:01.016Z,1008.3
2016-10-23T00:15:01.123Z,1008.27
2016-10-23T00:16:01.030Z,1008.29
2016-10-23T00:17:01.036Z,1008.26
2016-10-23T00:18:01.043Z,1008.25
2016-10-23T00:19:01.050Z,1008.21
2016-10-23T00:20:01.058Z,1008.23
2016-10-23T00:21:01.113Z,1008.2
2016-10-23T00:22:01.371Z,1008.17
2016-10-23T00:23:01.082Z,1008.2
2016-10-23T00:24:01.137Z,1008.21
2016-10-23T00:25:01.092Z,1008.21
2016-10-23T00:26:01.099Z,1008.21
2016-10-23T00:27:01.105Z,1008.23
2016-10-23T00:28:01.112Z,1008.2
2016-10-23T00:29:01.119Z,1008.23
2016-10-23T00:30:01.126Z,1008.22
2016-10-23T00:31:01.135Z,1008.21
2016-10-23T00:32:01.141Z,1008.19
2016-10-23T00:33:01.197Z,1008.21
2016-10-23T00:34:01.155Z,1008.2
2016-10-23T00:35:01.169Z,1008.21
2016-10-23T00:36:01.217Z,1008.18
2016-10-23T00:37:01.225Z,1008.16
2016-10-23T00:38:01.182Z,1008.19
2016-10-23T00:39:01.188Z,1008.25
2016-10-23T00:40:01.195Z,1008.18
2016-10-23T00:41:01.203Z,1008.22
2016-10-23T00:42:01.210Z,1008.21
2016-10-23T00:43:01.216Z,1008.24
2016-10-23T00:44:01.222Z,1008.23
2016-10-23T00:45:01.330Z,1008.22
2016-10-23T00:46:01.237Z,1008.22
2016-10-23T00:47:01.544Z,1008.19
2016-10-23T00:48:01.252Z,1008.19
2016-10-23T00:49:01.259Z,1008.21
2016-10-23T00:50:01.316Z,1008.2
2016-10-23T00:51:01.273Z,1008.19
2016-10-23T00:52:01.279Z,1008.18
2016-10-23T00:53:01.286Z,1008.18
2016-10-23T00:54:01.342Z,1008.16
2016-10-23T00:55:01.300Z,1008.14
2016-10-23T00:56:01.307Z,1008.16
2016-10-23T00:57:01.315Z,1008.16
2016-10-23T00:58:01.322Z,1008.16
2016-10-23T00:59:01.328Z,1008.13
2016-10-23T01:00:01.385Z,1008.13
2016-10-23T01:01:01.340Z,1008.16
2016-10-23T01:02:01.348Z,1008.16
2016-10-23T01:03:01.354Z,1008.14
2016-10-23T01:04:01.362Z,1008.13
2016-10-23T01:05:01.369Z,1008.12
2016-10-23T01:06:01.427Z,1008.13
2016-10-23T01:07:01.433Z,1008.13
2016-10-23T01:08:01.389Z,1008.14
2016-10-23T01:09:01.397Z,1008.16
2016-10-23T01:10:01.404Z,1008.18
2016-10-23T01:11:01.460Z,1008.18
2016-10-23T01:12:01.417Z,1008.17
2016-10-23T01:13:01.423Z,1008.15
2016-10-23T01:14:01.431Z,1008.15
2016-10-23T01:15:01.438Z,1008.15
2016-10-23T01:16:01.494Z,1008.17
2016-10-23T01:17:01.451Z,1008.13
2016-10-23T01:18:01.457Z,1008.14
2016-10-23T01:19:01.514Z,1008.1
2016-10-23T01:20:01.472Z,1008.13
2016-10-23T01:21:01.480Z,1008.13
2016-10-23T01:22:01.536Z,1008.11
2016-10-23T01:23:01.542Z,1008.13
2016-10-23T01:24:01.550Z,1008.14
2016-10-23T01:25:01.506Z,1008.11
2016-10-23T01:26:01.564Z,1008.15
2016-10-23T01:27:01.520Z,1008.11
2016-10-23T01:28:01.527Z,1008.09
2016-10-23T01:29:01.543Z,1008.11
2016-10-23T01:30:01.589Z,1008.11
2016-10-23T01:31:01.549Z,1008.08
2016-10-23T01:32:01.556Z,1008.05
2016-10-23T01:33:01.563Z,1008.02
2016-10-23T01:34:01.568Z,1007.99
2016-10-23T01:35:01.575Z,1008.01
2016-10-23T01:36:01.584Z,1007.99
2016-10-23T01:37:01.640Z,1008
2016-10-23T01:38:01.650Z,1007.96
2016-10-23T01:39:01.603Z,1007.94
2016-10-23T01:40:01.612Z,1007.92
2016-10-23T01:41:01.668Z,1007.93
2016-10-23T01:42:01.625Z,1007.91
2016-10-23T01:43:01.633Z,1007.87
2016-10-23T01:44:01.640Z,1007.86
2016-10-23T01:45:01.696Z,1007.87
2016-10-23T01:46:01.653Z,1007.89
2016-10-23T01:47:01.661Z,1007.88
2016-10-23T01:48:01.718Z,1007.87
2016-10-23T01:49:01.676Z,1007.86
2016-10-23T01:50:01.682Z,1007.88
2016-10-23T01:51:01.689Z,1007.87
2016-10-23T01:52:01.695Z,1007.88
2016-10-23T01:53:01.704Z,1007.89
2016-10-23T01:54:01.760Z,1007.92
2016-10-23T01:55:01.717Z,1007.88
2016-10-23T01:56:01.773Z,1007.91
2016-10-23T01:57:01.782Z,1007.85
2016-10-23T01:58:01.788Z,1007.84
2016-10-23T01:59:01.745Z,1007.84
2016-10-23T02:00:01.801Z,1007.82
2016-10-23T02:01:01.759Z,1007.83
2016-10-23T02:02:01.766Z,1007.83
2016-10-23T02:03:01.773Z,1007.83
2016-10-23T02:04:01.781Z,1007.83
2016-10-23T02:05:01.787Z,1007.84
2016-10-23T02:06:01.796Z,1007.85
2016-10-23T02:07:01.801Z,1007.86
2016-10-23T02:08:01.808Z,1007.87
2016-10-23T02:09:01.867Z,1007.87
2016-10-23T02:10:01.875Z,1007.9
2016-10-23T02:11:01.880Z,1007.89
2016-10-23T02:12:01.887Z,1007.91
2016-10-23T02:13:01.845Z,1007.9
2016-10-23T02:14:01.901Z,1007.85
2016-10-23T02:15:01.909Z,1007.83
2016-10-23T02:16:01.916Z,1007.82
2016-10-23T02:17:01.873Z,1007.81
2016-10-23T02:18:01.880Z,1007.82
2016-10-23T02:19:01.887Z,1007.82
2016-10-23T02:20:01.895Z,1007.81
2016-10-23T02:21:01.953Z,1007.84
2016-10-23T02:22:01.909Z,1007.86
2016-10-23T02:23:01.941Z,1007.84
2016-10-23T02:24:01.924Z,1007.81
2016-10-23T02:25:01.980Z,1007.82
2016-10-23T02:26:01.988Z,1007.81
2016-10-23T02:27:01.945Z,1007.77
2016-10-23T02:28:01.953Z,1007.77
2016-10-23T02:29:01.960Z,1007.77
2016-10-23T02:30:01.967Z,1007.76
2016-10-23T02:31:01.974Z,1007.77
2016-10-23T02:32:01.978Z,1007.76
2016-10-23T02:33:01.988Z,1007.76
2016-10-23T02:34:01.995Z,1007.74
2016-10-23T02:35:02.002Z,1007.72
2016-10-23T02:36:02.008Z,1007.75
2016-10-23T02:37:02.062Z,1007.74
2016-10-23T02:38:02.074Z,1007.71
2016-10-23T02:39:02.082Z,1007.7
2016-10-23T02:40:02.118Z,1007.72
2016-10-23T02:41:02.095Z,1007.67
2016-10-23T02:42:02.103Z,1007.67
2016-10-23T02:43:02.108Z,1007.69
2016-10-23T02:44:02.066Z,1007.68
2016-10-23T02:45:02.126Z,1007.69
2016-10-23T02:46:02.080Z,1007.67
2016-10-23T02:47:02.086Z,1007.66
2016-10-23T02:48:02.095Z,1007.68
2016-10-23T02:49:02.102Z,1007.66
2016-10-23T02:50:02.111Z,1007.67
2016-10-23T02:51:02.115Z,1007.68
2016-10-23T02:52:02.123Z,1007.65
2016-10-23T02:53:02.131Z,1007.67
2016-10-23T02:54:02.209Z,1007.66
2016-10-23T02:55:02.195Z,1007.67
2016-10-23T02:56:02.152Z,1007.68
2016-10-23T02:57:02.160Z,1007.65
2016-10-23T02:58:02.215Z,1007.66
2016-10-23T02:59:02.222Z,1007.64
2016-10-23T03:00:02.181Z,1007.66
2016-10-23T03:01:02.188Z,1007.66
2016-10-23T03:02:02.195Z,1007.64
2016-10-23T03:03:02.252Z,1007.65
2016-10-23T03:04:02.210Z,1007.64
2016-10-23T03:05:02.217Z,1007.67
2016-10-23T03:06:02.223Z,1007.65
2016-10-23T03:07:02.232Z,1007.68
2016-10-23T03:08:02.289Z,1007.68
2016-10-23T03:09:02.245Z,1007.67
2016-10-23T03:10:02.253Z,1007.66
2016-10-23T03:11:02.311Z,1007.63
2016-10-23T03:12:02.318Z,1007.64
2016-10-23T03:13:02.325Z,1007.66
2016-10-23T03:14:02.332Z,1007.64
2016-10-23T03:15:02.339Z,1007.63
2016-10-23T03:16:02.297Z,1007.61
2016-10-23T03:17:02.304Z,1007.66
2016-10-23T03:18:02.311Z,1007.65
2016-10-23T03:19:02.316Z,1007.62
2016-10-23T03:20:02.325Z,1007.64
2016-10-23T03:21:02.331Z,1007.67
2016-10-23T03:22:02.338Z,1007.65
2016-10-23T03:23:02.347Z,1007.67
2016-10-23T03:24:02.351Z,1007.69
2016-10-23T03:25:02.360Z,1007.67
2016-10-23T03:26:02.416Z,1007.63
2016-10-23T03:27:02.423Z,1007.61
2016-10-23T03:28:02.430Z,1007.64
2016-10-23T03:29:02.388Z,1007.63
2016-10-23T03:30:02.445Z,1007.63
2016-10-23T03:31:02.451Z,1007.63
2016-10-23T03:32:02.409Z,1007.65
2016-10-23T03:33:02.415Z,1007.6
2016-10-23T03:34:02.424Z,1007.6
2016-10-23T03:35:02.431Z,1007.6
2016-10-23T03:36:02.438Z,1007.63
2016-10-23T03:37:02.445Z,1007.6
2016-10-23T03:38:02.451Z,1007.62
2016-10-23T03:39:02.459Z,1007.61
2016-10-23T03:40:02.469Z,1007.62
2016-10-23T03:41:02.524Z,1007.59
2016-10-23T03:42:02.479Z,1007.6
2016-10-23T03:43:02.487Z,1007.6
2016-10-23T03:44:02.546Z,1007.62
2016-10-23T03:45:02.552Z,1007.59
2016-10-23T03:46:02.559Z,1007.61
2016-10-23T03:47:02.566Z,1007.62
2016-10-23T03:48:02.573Z,1007.6
2016-10-23T03:49:02.528Z,1007.59
2016-10-23T03:50:02.537Z,1007.63
2016-10-23T03:51:02.543Z,1007.58
2016-10-23T03:52:02.553Z,1007.61
2016-10-23T03:53:02.558Z,1007.64
2016-10-23T03:54:02.565Z,1007.56
2016-10-23T03:55:02.623Z,1007.59
2016-10-23T03:56:02.631Z,1007.58
2016-10-23T03:57:02.637Z,1007.57
2016-10-23T03:58:02.596Z,1007.58
2016-10-23T03:59:02.603Z,1007.56
2016-10-23T04:00:02.659Z,1007.57
2016-10-23T04:01:02.666Z,1007.55
2016-10-23T04:02:02.623Z,1007.55
2016-10-23T04:03:02.631Z,1007.56
2016-10-23T04:04:02.637Z,1007.54
2016-10-23T04:05:02.644Z,1007.52
2016-10-23T04:06:02.651Z,1007.54
2016-10-23T04:07:02.708Z,1007.56
2016-10-23T04:08:02.667Z,1007.55
2016-10-23T04:09:02.723Z,1007.55
2016-10-23T04:10:02.730Z,1007.52
2016-10-23T04:11:02.686Z,1007.52
2016-10-23T04:12:02.743Z,1007.53
2016-10-23T04:13:02.699Z,1007.53
2016-10-23T04:14:02.711Z,1007.52
2016-10-23T04:15:02.714Z,1007.49
2016-10-23T04:16:02.772Z,1007.48
2016-10-23T04:17:02.730Z,1007.48
2016-10-23T04:18:02.735Z,1007.45
2016-10-23T04:19:02.743Z,1007.47
2016-10-23T04:20:02.752Z,1007.43
2016-10-23T04:21:02.758Z,1007.46
2016-10-23T04:22:02.765Z,1007.45
2016-10-23T04:23:02.821Z,1007.46
2016-10-23T04:24:02.781Z,1007.49
2016-10-23T04:25:02.873Z,1007.48
2016-10-23T04:26:02.793Z,1007.46
2016-10-23T04:27:02.800Z,1007.51
2016-10-23T04:28:02.858Z,1007.51
2016-10-23T04:29:02.863Z,1007.51
2016-10-23T04:30:02.823Z,1007.51
2016-10-23T04:31:02.829Z,1007.51
2016-10-23T04:32:02.885Z,1007.51
2016-10-23T04:33:02.893Z,1007.5
2016-10-23T04:34:02.900Z,1007.51
2016-10-23T04:35:02.858Z,1007.53
2016-10-23T04:36:02.864Z,1007.53
2016-10-23T04:37:02.870Z,1007.53
2016-10-23T04:38:02.928Z,1007.53
2016-10-23T04:39:02.885Z,1007.54
2016-10-23T04:40:02.891Z,1007.53
2016-10-23T04:41:02.898Z,1007.51
2016-10-23T04:42:02.911Z,1007.54
2016-10-23T04:43:02.913Z,1007.52
2016-10-23T04:44:02.920Z,1007.54
2016-10-23T04:45:02.927Z,1007.53
2016-10-23T04:46:02.935Z,1007.51
2016-10-23T04:47:02.942Z,1007.57
2016-10-23T04:48:02.998Z,1007.52
2016-10-23T04:49:03.006Z,1007.54
2016-10-23T04:50:03.012Z,1007.56
2016-10-23T04:51:02.969Z,1007.52
2016-10-23T04:52:02.978Z,1007.54
2016-10-23T04:53:02.986Z,1007.54
2016-10-23T04:54:02.993Z,1007.57
2016-10-23T04:55:03.000Z,1007.54
2016-10-23T04:56:03.004Z,1007.54
2016-10-23T04:57:03.015Z,1007.56
2016-10-23T04:58:03.021Z,1007.56
2016-10-23T04:59:03.027Z,1007.52
2016-10-23T05:00:03.087Z,1007.5
2016-10-23T05:01:03.042Z,1007.48
2016-10-23T05:02:03.049Z,1007.49
2016-10-23T05:03:03.057Z,1007.47
2016-10-23T05:04:03.063Z,1007.51
2016-10-23T05:05:03.120Z,1007.5
2016-10-23T05:06:03.132Z,1007.54
2016-10-23T05:07:03.085Z,1007.49
2016-10-23T05:08:03.096Z,1007.53
2016-10-23T05:09:03.100Z,1007.54
2016-10-23T05:10:03.107Z,1007.55
2016-10-23T05:11:03.114Z,1007.53
2016-10-23T05:12:03.120Z,1007.52
2016-10-23T05:13:03.128Z,1007.51
2016-10-23T05:14:03.137Z,1007.47
2016-10-23T05:15:03.143Z,1007.48
2016-10-23T05:16:03.150Z,1007.48
2016-10-23T05:17:03.206Z,1007.48
2016-10-23T05:18:03.166Z,1007.49
2016-10-23T05:19:03.171Z,1007.48
2016-10-23T05:20:03.227Z,1007.5
2016-10-23T05:21:03.234Z,1007.49
2016-10-23T05:22:03.193Z,1007.5
2016-10-23T05:23:03.200Z,1007.5
2016-10-23T05:24:03.206Z,1007.47
2016-10-23T05:25:03.213Z,1007.46
2016-10-23T05:26:03.222Z,1007.47
2016-10-23T05:27:03.229Z,1007.46
2016-10-23T05:28:03.285Z,1007.46
2016-10-23T05:30:03.250Z,1007.46
2016-10-23T05:31:03.258Z,1007.45
2016-10-23T05:32:03.315Z,1007.45
2016-10-23T05:33:03.272Z,1007.43
2016-10-23T05:34:03.280Z,1007.44
2016-10-23T05:35:03.287Z,1007.42
2016-10-23T05:36:03.293Z,1007.43
2016-10-23T05:37:03.351Z,1007.43
2016-10-23T05:38:03.309Z,1007.42
2016-10-23T05:39:03.315Z,1007.43
2016-10-23T05:40:03.323Z,1007.42
2016-10-23T05:41:03.330Z,1007.4
2016-10-23T05:42:03.386Z,1007.43
2016-10-23T05:43:03.344Z,1007.42
2016-10-23T05:44:03.353Z,1007.35
2016-10-23T05:45:03.357Z,1007.38
2016-10-23T05:46:03.365Z,1007.4
2016-10-23T05:47:03.373Z,1007.41
2016-10-23T05:48:03.381Z,1007.42
2016-10-23T05:49:03.392Z,1007.45
2016-10-23T05:50:03.395Z,1007.44
2016-10-23T05:51:03.451Z,1007.47
2016-10-23T05:52:03.459Z,1007.43
2016-10-23T05:53:03.465Z,1007.43
2016-10-23T05:54:03.423Z,1007.48
2016-10-23T05:55:03.480Z,1007.45
2016-10-23T05:56:03.437Z,1007.46
2016-10-23T05:57:03.444Z,1007.47
2016-10-23T05:58:03.452Z,1007.49
2016-10-23T05:59:03.459Z,1007.51
2016-10-23T06:00:03.467Z,1007.5
2016-10-23T06:01:03.473Z,1007.53
2016-10-23T06:02:03.481Z,1007.53
2016-10-23T06:03:03.488Z,1007.54
2016-10-23T06:04:03.544Z,1007.55
2016-10-23T06:05:03.503Z,1007.55
2016-10-23T06:06:03.510Z,1007.55
2016-10-23T06:07:03.516Z,1007.5
2016-10-23T06:08:03.575Z,1007.53
2016-10-23T06:09:03.581Z,1007.52
2016-10-23T06:10:03.539Z,1007.51
2016-10-23T06:11:03.546Z,1007.51
2016-10-23T06:12:03.553Z,1007.49
2016-10-23T06:13:03.560Z,1007.52
2016-10-23T06:14:03.567Z,1007.5
2016-10-23T06:15:03.625Z,1007.48
2016-10-23T06:16:03.583Z,1007.54
2016-10-23T06:17:03.590Z,1007.52
2016-10-23T06:18:03.647Z,1007.55
2016-10-23T06:19:03.603Z,1007.52
2016-10-23T06:20:03.611Z,1007.57
2016-10-23T06:21:03.619Z,1007.52
2016-10-23T06:22:03.625Z,1007.51
2016-10-23T06:23:03.683Z,1007.53
2016-10-23T06:24:03.689Z,1007.52
2016-10-23T06:25:03.647Z,1007.51
2016-10-23T06:26:03.654Z,1007.53
2016-10-23T06:27:03.719Z,1007.56
2016-10-23T06:28:03.669Z,1007.57
2016-10-23T06:29:03.727Z,1007.56
2016-10-23T06:30:03.683Z,1007.55
2016-10-23T06:31:03.691Z,1007.58
2016-10-23T06:32:03.697Z,1007.56
2016-10-23T06:33:03.706Z,1007.6
2016-10-23T06:34:03.712Z,1007.58
2016-10-23T06:35:03.770Z,1007.62
2016-10-23T06:36:03.776Z,1007.59
2016-10-23T06:37:03.733Z,1007.62
2016-10-23T06:38:03.741Z,1007.6
2016-10-23T06:39:03.799Z,1007.61
2016-10-23T06:40:03.806Z,1007.61
2016-10-23T06:41:03.811Z,1007.62
2016-10-23T06:42:03.770Z,1007.65
2016-10-23T06:43:03.778Z,1007.61
2016-10-23T06:44:03.784Z,1007.64
2016-10-23T06:45:03.792Z,1007.62
2016-10-23T06:46:03.799Z,1007.63
2016-10-23T06:47:03.807Z,1007.61
2016-10-23T06:48:03.814Z,1007.62
2016-10-23T06:49:03.820Z,1007.65
2016-10-23T06:50:03.828Z,1007.65
2016-10-23T06:51:03.836Z,1007.65
2016-10-23T06:52:03.843Z,1007.65
2016-10-23T06:53:03.849Z,1007.64
2016-10-23T06:54:03.858Z,1007.65
2016-10-23T06:55:03.916Z,1007.69
2016-10-23T06:56:03.870Z,1007.66
2016-10-23T06:57:03.929Z,1007.68
2016-10-23T06:58:04.135Z,1007.69
2016-10-23T06:59:03.894Z,1007.72
2016-10-23T07:00:03.900Z,1007.68
2016-10-23T07:01:03.909Z,1007.74
2016-10-23T07:02:03.965Z,1007.74
2016-10-23T07:03:03.921Z,1007.73
2016-10-23T07:04:03.930Z,1007.72
2016-10-23T07:05:03.937Z,1007.73
2016-10-23T07:06:03.944Z,1007.72
2016-10-23T07:07:03.952Z,1007.7
2016-10-23T07:08:04.010Z,1007.76
2016-10-23T07:09:03.965Z,1007.74
2016-10-23T07:10:03.973Z,1007.75
2016-10-23T07:11:04.033Z,1007.77
2016-10-23T07:12:04.038Z,1007.76
2016-10-23T07:13:03.997Z,1007.76
2016-10-23T07:14:04.003Z,1007.8
2016-10-23T07:15:04.009Z,1007.81
2016-10-23T07:16:04.017Z,1007.79
2016-10-23T07:17:04.024Z,1007.8
2016-10-23T07:18:04.033Z,1007.81
2016-10-23T07:19:04.039Z,1007.78
2016-10-23T07:20:04.047Z,1007.83
2016-10-23T07:21:04.054Z,1007.82
2016-10-23T07:22:04.112Z,1007.78
2016-10-23T07:23:04.069Z,1007.8
2016-10-23T07:24:04.076Z,1007.85
2016-10-23T07:25:04.083Z,1007.82
2016-10-23T07:26:04.141Z,1007.84
2016-10-23T07:27:04.149Z,1007.87
2016-10-23T07:28:04.154Z,1007.9
2016-10-23T07:29:04.113Z,1007.86
2016-10-23T07:30:04.170Z,1007.88
2016-10-23T07:31:04.127Z,1007.9
2016-10-23T07:32:04.135Z,1007.9
2016-10-23T07:33:04.141Z,1007.89
2016-10-23T07:34:04.149Z,1007.83
2016-10-23T07:35:04.158Z,1007.87
2016-10-23T07:36:04.164Z,1007.86
2016-10-23T07:37:04.170Z,1007.86
2016-10-23T07:38:04.229Z,1007.85
2016-10-23T07:39:04.185Z,1007.85
2016-10-23T07:40:04.242Z,1007.87
2016-10-23T07:41:04.200Z,1007.89
2016-10-23T07:42:04.207Z,1007.86
2016-10-23T07:43:04.265Z,1007.88
2016-10-23T07:44:04.272Z,1007.85
2016-10-23T07:45:04.229Z,1007.86
2016-10-23T07:46:04.238Z,1007.94
2016-10-23T07:47:04.245Z,1007.93
2016-10-23T07:48:04.252Z,1007.92
2016-10-23T07:49:04.258Z,1007.86
2016-10-23T07:50:04.265Z,1007.9
2016-10-23T07:51:04.324Z,1007.87
2016-10-23T07:52:04.331Z,1007.89
2016-10-23T07:53:04.289Z,1007.91
2016-10-23T07:54:04.343Z,1007.95
2016-10-23T07:55:04.302Z,1007.9
2016-10-23T07:56:04.311Z,1007.91
2016-10-23T07:57:04.367Z,1007.96
2016-10-23T07:58:04.375Z,1007.9
2016-10-23T07:59:04.381Z,1007.94
2016-10-23T08:00:04.389Z,1007.9
2016-10-23T08:01:04.347Z,1007.93
2016-10-23T08:02:04.355Z,1007.93
2016-10-23T08:03:04.412Z,1007.92
2016-10-23T08:04:04.370Z,1007.9
2016-10-23T08:05:04.677Z,1007.94
2016-10-23T08:06:04.385Z,1007.98
2016-10-23T08:07:04.443Z,1007.97
2016-10-23T08:08:04.400Z,1008.05
2016-10-23T08:09:04.406Z,1008.09
2016-10-23T08:10:04.466Z,1008.1
2016-10-23T08:11:04.473Z,1008.07
2016-10-23T08:12:04.479Z,1008.04
2016-10-23T08:13:04.437Z,1008.08
2016-10-23T08:14:04.445Z,1008.12
2016-10-23T08:15:04.503Z,1008.04
2016-10-23T08:16:04.510Z,1008.06
2016-10-23T08:17:04.521Z,1008.07
2016-10-23T08:18:04.477Z,1008.05
2016-10-23T08:19:04.484Z,1008.07
2016-10-23T08:20:04.492Z,1008.05
2016-10-23T08:21:04.499Z,1008.05
2016-10-23T08:22:04.506Z,1008.05
2016-10-23T08:23:04.615Z,1008.05
2016-10-23T08:24:04.571Z,1008.02
2016-10-23T08:25:04.530Z,1008.04
2016-10-23T08:26:04.788Z,1008.04
2016-10-23T08:27:04.545Z,1008.04
2016-10-23T08:28:04.552Z,1008.03
2016-10-23T08:29:04.560Z,1007.98
2016-10-23T08:30:04.566Z,1007.99
2016-10-23T08:31:04.575Z,1008.02
2016-10-23T08:32:04.583Z,1008.02
2016-10-23T08:33:04.590Z,1008.03
2016-10-23T08:34:04.598Z,1008
2016-10-23T08:35:04.605Z,1008.01
2016-10-23T08:36:04.613Z,1007.99
2016-10-23T08:37:04.620Z,1007.97
2016-10-23T08:38:04.627Z,1007.95
2016-10-23T08:39:04.643Z,1007.96
2016-10-23T08:40:04.642Z,1007.97
2016-10-23T08:41:04.650Z,1007.95
2016-10-23T08:42:04.670Z,1007.95
2016-10-23T08:43:04.666Z,1007.94
2016-10-23T08:44:04.673Z,1007.95
2016-10-23T08:45:04.680Z,1007.98
2016-10-23T08:46:04.738Z,1007.98
2016-10-23T08:47:04.745Z,1008.01
2016-10-23T08:48:04.702Z,1008.01
2016-10-23T08:49:04.709Z,1008.03
2016-10-23T08:50:04.719Z,1008.01
2016-10-23T08:51:04.724Z,1008.03
2016-10-23T08:52:04.733Z,1008.09
2016-10-23T08:53:04.789Z,1008
2016-10-23T08:54:04.753Z,1008.03
2016-10-23T08:55:04.754Z,1008.18
2016-10-23T08:56:04.762Z,1008.09
2016-10-23T08:57:04.768Z,1008.04
2016-10-23T08:58:04.778Z,1008.05
2016-10-23T08:59:04.785Z,1008.05
2016-10-23T09:00:04.791Z,1007.93
2016-10-23T09:01:04.848Z,1007.98
2016-10-23T09:02:04.807Z,1007.95
2016-10-23T09:03:04.863Z,1007.97
2016-10-23T09:04:04.822Z,1007.92
2016-10-23T09:05:04.831Z,1007.99
2016-10-23T09:06:04.838Z,1007.96
2016-10-23T09:07:04.844Z,1007.95
2016-10-23T09:08:04.852Z,1007.98
2016-10-23T09:09:04.865Z,1008.03
2016-10-23T09:10:04.917Z,1008
2016-10-23T09:11:04.874Z,1008
2016-10-23T09:12:04.883Z,1007.98
2016-10-23T09:13:04.891Z,1007.98
2016-10-23T09:14:04.897Z,1007.96
2016-10-23T09:15:04.956Z,1008.01
2016-10-23T09:16:04.912Z,1007.97
2016-10-23T09:17:04.920Z,1007.94
2016-10-23T09:18:04.927Z,1007.89
2016-10-23T09:19:04.936Z,1007.92
2016-10-23T09:20:04.944Z,1007.9
2016-10-23T09:21:04.953Z,1007.89
2016-10-23T09:22:04.958Z,1007.84
2016-10-23T09:23:04.968Z,1007.85
2016-10-23T09:24:04.975Z,1007.85
2016-10-23T09:25:04.982Z,1007.85
2016-10-23T09:26:04.989Z,1007.81
2016-10-23T09:27:04.997Z,1007.82
2016-10-23T09:28:05.004Z,1007.83
2016-10-23T09:29:05.021Z,1007.81
2016-10-23T09:30:05.069Z,1007.8
2016-10-23T09:31:05.028Z,1007.78
2016-10-23T09:32:05.088Z,1007.85
2016-10-23T09:33:05.094Z,1007.82
2016-10-23T09:34:05.100Z,1007.8
2016-10-23T09:35:05.108Z,1007.82
2016-10-23T09:36:05.080Z,1007.81
2016-10-23T09:37:05.072Z,1007.79
2016-10-23T09:38:05.081Z,1007.75
2016-10-23T09:39:05.093Z,1007.73
2016-10-23T09:40:05.116Z,1007.76
2016-10-23T09:41:05.103Z,1007.71
2016-10-23T09:42:05.147Z,1007.68
2016-10-23T09:43:05.117Z,1007.68
2016-10-23T09:44:05.144Z,1007.68
2016-10-23T09:45:05.132Z,1007.63
2016-10-23T09:46:05.257Z,1007.69
2016-10-23T09:47:05.243Z,1007.64
2016-10-23T09:48:05.156Z,1007.68
2016-10-23T09:49:05.168Z,1007.67
2016-10-23T09:50:05.265Z,1007.67
2016-10-23T09:51:05.261Z,1007.67
2016-10-23T09:52:05.185Z,1007.67
2016-10-23T09:53:05.192Z,1007.69
2016-10-23T09:54:05.200Z,1007.67
2016-10-23T09:55:05.207Z,1007.66
2016-10-23T09:56:05.216Z,1007.66
2016-10-23T09:57:05.277Z,1007.64
2016-10-23T09:58:05.230Z,1007.62
2016-10-23T09:59:05.238Z,1007.63
2016-10-23T10:00:05.245Z,1007.64
2016-10-23T10:01:05.304Z,1007.62
2016-10-23T10:02:05.313Z,1007.6
2016-10-23T10:03:05.267Z,1007.6
2016-10-23T10:04:05.540Z,1007.61
2016-10-23T10:05:05.284Z,1007.64
2016-10-23T10:06:05.289Z,1007.64
2016-10-23T10:07:05.300Z,1007.6
2016-10-23T10:08:05.759Z,1007.61
2016-10-23T10:09:05.359Z,1007.59
2016-10-23T10:10:05.369Z,1007.62
2016-10-23T10:11:05.327Z,1007.66
2016-10-23T10:12:05.336Z,1007.61
2016-10-23T10:13:05.342Z,1007.63
2016-10-23T10:14:05.350Z,1007.63
2016-10-23T10:15:05.356Z,1007.59
2016-10-23T10:16:05.365Z,1007.59
2016-10-23T10:17:05.373Z,1007.54
2016-10-23T10:18:05.385Z,1007.54
2016-10-23T10:19:05.388Z,1007.59
2016-10-23T10:20:05.443Z,1007.55
2016-10-23T10:21:05.402Z,1007.51
2016-10-23T10:22:05.460Z,1007.5
2016-10-23T10:23:05.467Z,1007.49
2016-10-23T10:24:05.425Z,1007.48
2016-10-23T10:25:05.433Z,1007.49
2016-10-23T10:26:05.439Z,1007.48
2016-10-23T10:27:05.446Z,1007.44
2016-10-23T10:28:05.454Z,1007.42
2016-10-23T10:29:05.461Z,1007.41
2016-10-23T10:30:05.519Z,1007.4
2016-10-23T10:31:05.475Z,1007.4
2016-10-23T10:32:05.484Z,1007.38
2016-10-23T10:33:05.541Z,1007.38
2016-10-23T10:34:05.510Z,1007.36
2016-10-23T10:35:05.506Z,1007.34
2016-10-23T10:36:05.514Z,1007.34
2016-10-23T10:37:05.521Z,1007.37
2016-10-23T10:38:05.529Z,1007.36
2016-10-23T10:39:05.536Z,1007.36
2016-10-23T10:40:05.543Z,1007.36
2016-10-23T10:41:05.552Z,1007.39
2016-10-23T10:42:05.557Z,1007.35
2016-10-23T10:43:05.565Z,1007.34
2016-10-23T10:44:05.573Z,1007.35
2016-10-23T10:45:05.582Z,1007.36
2016-10-23T10:46:05.588Z,1007.39
2016-10-23T10:47:05.593Z,1007.35
2016-10-23T10:48:05.603Z,1007.35
2016-10-23T10:49:05.616Z,1007.3
2016-10-23T10:50:05.619Z,1007.33
2016-10-23T10:51:05.625Z,1007.3
2016-10-23T10:52:05.681Z,1007.3
2016-10-23T10:53:05.687Z,1007.3
2016-10-23T10:54:05.647Z,1007.31
2016-10-23T10:55:05.653Z,1007.29
2016-10-23T10:56:05.713Z,1007.29
2016-10-23T10:57:05.668Z,1007.28
2016-10-23T10:58:05.726Z,1007.26
2016-10-23T10:59:05.683Z,1007.24
2016-10-23T11:00:05.689Z,1007.23
2016-10-23T11:01:05.697Z,1007.22
2016-10-23T11:02:05.704Z,1007.24
2016-10-23T11:03:05.713Z,1007.24
2016-10-23T11:04:05.719Z,1007.19
2016-10-23T11:05:05.728Z,1007.21
2016-10-23T11:06:05.734Z,1007.19
2016-10-23T11:07:05.746Z,1007.19
2016-10-23T11:08:05.799Z,1007.16
2016-10-23T11:09:05.807Z,1007.18
2016-10-23T11:10:05.764Z,1007.2
2016-10-23T11:11:05.771Z,1007.2
2016-10-23T11:12:05.777Z,1007.17
2016-10-23T11:13:05.785Z,1007.16
2016-10-23T11:14:05.793Z,1007.18
2016-10-23T11:15:05.801Z,1007.17
2016-10-23T11:16:05.808Z,1007.17
2016-10-23T11:17:05.815Z,1007.12
2016-10-23T11:18:05.823Z,1007.11
2016-10-23T11:19:05.829Z,1007.12
2016-10-23T11:20:05.886Z,1007.13
2016-10-23T11:21:05.844Z,1007.1
2016-10-23T11:22:05.850Z,1007.11
2016-10-23T11:23:05.859Z,1007.09
2016-10-23T11:24:05.916Z,1007.06
2016-10-23T11:25:05.923Z,1007.11
2016-10-23T11:26:05.929Z,1007.05
2016-10-23T11:27:05.886Z,1007.05
2016-10-23T11:28:05.894Z,1007
2016-10-23T11:29:05.902Z,1007.01
2016-10-23T11:30:05.909Z,1007
2016-10-23T11:31:05.915Z,1007
2016-10-23T11:32:05.924Z,1006.99
2016-10-23T11:33:05.929Z,1007.01
2016-10-23T11:34:05.938Z,1007
2016-10-23T11:35:05.944Z,1006.98
2016-10-23T11:36:05.951Z,1006.98
2016-10-23T11:37:05.958Z,1006.96
2016-10-23T11:38:05.968Z,1006.95
2016-10-23T11:39:05.972Z,1006.98
2016-10-23T11:40:05.980Z,1006.95
2016-10-23T11:41:05.986Z,1006.94
2016-10-23T11:42:05.994Z,1006.91
2016-10-23T11:43:06.001Z,1006.91
2016-10-23T11:44:06.008Z,1006.88
2016-10-23T11:45:06.016Z,1006.91
2016-10-23T11:46:06.023Z,1006.87
2016-10-23T11:47:06.031Z,1006.88
2016-10-23T11:48:06.037Z,1006.85
2016-10-23T11:49:06.044Z,1006.84
2016-10-23T11:50:06.052Z,1006.84
2016-10-23T11:51:06.059Z,1006.85
2016-10-23T11:52:06.119Z,1006.87
2016-10-23T11:53:06.075Z,1006.85
2016-10-23T11:54:06.082Z,1006.83
2016-10-23T11:55:06.088Z,1006.82
2016-10-23T11:56:06.097Z,1006.74
2016-10-23T11:57:06.153Z,1006.77
2016-10-23T11:58:06.162Z,1006.76
2016-10-23T11:59:06.117Z,1006.77
2016-10-23T12:00:06.125Z,1006.8
2016-10-23T12:01:06.132Z,1006.76
2016-10-23T12:02:06.138Z,1006.78
2016-10-23T12:03:06.196Z,1006.78
2016-10-23T12:04:06.152Z,1006.74
2016-10-23T12:05:06.162Z,1006.76
2016-10-23T12:06:06.169Z,1006.69
2016-10-23T12:07:06.175Z,1006.67
2016-10-23T12:08:06.185Z,1006.68
2016-10-23T12:09:06.192Z,1006.61